Data for 09/30/2014

Time Sea-Level Adjusted Pressure Absolute Pressure Temperature Relative Humidity Dew Point   
(mb) (inHg) (mb) (inHg) (C) (F) (%) (C) (F)
00:05 1013 29.91 842 24.86 8.7 47.6 77 4.9 40.8
00:10 1013 29.91 842 24.86 8.8 47.9 76 4.8 40.7
00:15 1013 29.91 842 24.86 9.1 48.4 75 4.9 40.9
00:20 1013 29.91 842 24.86 9.3 48.8 72 4.6 40.4
00:25 1013 29.91 842 24.86 9.5 49.2 73 5.1 41.1
00:30 1013 29.91 842 24.86 9.6 49.2 72 4.8 40.7
00:35 1013 29.91 842 24.86 9.7 49.5 71 4.8 40.6
00:40 1013 29.91 842 24.86 9.9 49.9 75 5.7 42.2
00:45 1013 29.91 842 24.86 9.7 49.4 77 5.8 42.5
00:50 1013 29.91 842 24.86 9.6 49.4 75 5.5 42
00:55 1013 29.91 842 24.86 9.8 49.6 81 6.7 44
01:00 1013 29.91 842 24.86 9.1 48.4 86 6.9 44.4
01:05 1013 29.91 842 24.86 8.7 47.7 87 6.6 43.9
01:10 1013 29.91 843 24.89 8.6 47.6 86 6.4 43.6
01:15 1013 29.91 842 24.86 8.8 47.8 86 6.6 43.9
01:20 1013 29.91 842 24.86 8.7 47.6 86 6.5 43.6
01:25 1013 29.91 843 24.89 8.6 47.5 86 6.4 43.6
01:30 1013 29.91 843 24.89 8.6 47.5 87 6.5 43.7
01:35 1013 29.91 843 24.89 8.7 47.6 86 6.4 43.6
01:40 1013 29.91 843 24.89 8.7 47.6 87 6.6 43.9
01:45 1014 29.94 843 24.89 8.6 47.4 87 6.6 43.8
01:50 1014 29.94 843 24.89 8.5 47.2 87 6.5 43.7
01:55 1013 29.91 843 24.89 8.5 47.4 86 6.4 43.5
02:00 1013 29.91 843 24.89 8.6 47.5 87 6.5 43.7
02:05 1013 29.91 843 24.89 8.6 47.5 86 6.5 43.6
02:10 1013 29.91 843 24.89 8.6 47.4 88 6.8 44.2
02:15 1013 29.91 842 24.86 8.6 47.4 88 6.6 43.9
02:20 1013 29.91 842 24.86 8.4 47.2 89 6.6 44
02:25 1013 29.91 842 24.86 8.4 47.1 88 6.6 43.9
02:30 1013 29.91 842 24.86 8.4 47.2 89 6.7 44.1
02:35 1013 29.91 842 24.86 8.4 47.1 89 6.7 44
02:40 1013 29.91 842 24.86 8.5 47.2 89 6.7 44.1
02:45 1013 29.91 842 24.86 8.5 47.4 89 6.8 44.3
02:50 1013 29.91 842 24.86 8.5 47.3 89 6.9 44.4
02:55 1013 29.91 842 24.86 8.5 47.2 89 6.8 44.2
03:00 1013 29.91 842 24.86 8.4 47.2 89 6.7 44.1
03:05 1013 29.91 842 24.86 8.4 47.1 89 6.6 43.9
03:10 1013 29.91 842 24.86 8.4 47.2 88 6.6 43.9
03:15 1013 29.91 842 24.86 8.6 47.4 89 6.8 44.3
03:20 1013 29.91 842 24.86 8.7 47.6 89 7 44.5
03:25 1013 29.91 842 24.86 8.7 47.7 89 7 44.7
03:30 1013 29.91 842 24.86 8.7 47.6 88 6.8 44.2
03:35 1013 29.91 842 24.86 8.6 47.5 87 6.5 43.7
03:40 1013 29.91 842 24.86 8.6 47.5 85 6.2 43.2
03:45 1013 29.91 842 24.86 8.6 47.5 85 6.2 43.2
03:50 1013 29.91 842 24.86 8.6 47.5 84 6.1 42.9
03:55 1013 29.91 842 24.86 8.6 47.5 84 6 42.8
04:00 1013 29.91 842 24.86 8.6 47.5 83 5.9 42.7
04:05 1013 29.91 842 24.86 8.6 47.6 83 5.9 42.6
04:10 1013 29.91 842 24.86 8.7 47.6 81 5.7 42.3
04:15 1013 29.91 842 24.86 8.9 47.9 78 5.3 41.5
04:20 1013 29.91 842 24.86 9 48.3 77 5.3 41.6
04:25 1013 29.91 842 24.86 9.1 48.4 74 4.8 40.7
04:30 1013 29.91 842 24.86 9.2 48.6 75 5 41
04:35 1013 29.91 842 24.86 9.2 48.6 75 5.1 41.2
04:40 1013 29.91 842 24.86 9.2 48.5 76 5.2 41.3
04:45 1013 29.91 842 24.86 9.1 48.4 75 4.8 40.7
04:50 1013 29.91 842 24.86 9.2 48.5 74 4.8 40.7
04:55 1013 29.91 842 24.86 9.2 48.5 75 5 41
05:00 1013 29.91 842 24.86 9 48.3 77 5.3 41.5
05:05 1012 29.88 842 24.86 8.8 47.9 77 5.1 41.2
05:10 1012 29.88 842 24.86 8.8 47.9 77 5 41
05:15 1012 29.88 842 24.86 8.8 47.8 77 4.9 40.9
05:20 1012 29.88 841 24.83 8.8 47.8 77 4.9 40.9
05:25 1012 29.88 841 24.83 8.8 47.8 78 5.1 41.2
05:30 1012 29.88 841 24.83 8.6 47.6 79 5.1 41.2
05:35 1012 29.88 841 24.83 8.6 47.5 78 5.1 41.1
05:40 1012 29.88 841 24.83 8.6 47.5 77 4.8 40.7
05:45 1012 29.88 841 24.83 8.6 47.5 77 4.8 40.6
05:50 1012 29.88 841 24.83 8.7 47.6 75 4.6 40.3
05:55 1012 29.88 841 24.83 8.8 47.8 75 4.6 40.3
06:00 1012 29.88 841 24.83 8.8 47.9 74 4.5 40.1
06:05 1012 29.88 842 24.86 8.8 47.9 74 4.4 40
06:10 1012 29.88 842 24.86 9 48.2 72 4.3 39.7
06:15 1012 29.88 842 24.86 9.1 48.3 75 5 41
06:20 1012 29.88 842 24.86 8.7 47.7 81 5.6 42.1
06:25 1012 29.88 841 24.83 8.2 46.8 85 5.8 42.4
06:30 1012 29.88 841 24.83 7.8 46.1 84 5.3 41.5
06:35 1012 29.88 842 24.86 7.8 46 83 5 41.1
06:40 1012 29.88 842 24.86 7.9 46.3 82 5.1 41.2
06:45 1012 29.88 841 24.83 8 46.3 81 4.8 40.7
06:50 1012 29.88 841 24.83 8.2 46.7 80 4.9 40.8
06:55 1012 29.88 841 24.83 8.2 46.7 82 5.4 41.6
07:00 1012 29.88 841 24.83 8.1 46.5 81 5 41
07:05 1012 29.88 841 24.83 8.2 46.7 80 5 41.1
07:10 1012 29.88 841 24.83 8.2 46.8 81 5.1 41.2
07:15 1012 29.88 841 24.83 8.3 46.9 80 5 41
07:20 1012 29.88 841 24.83 8.4 47 79 5 41
07:25 1012 29.88 841 24.83 8.4 47.2 80 5.2 41.3
07:30 1012 29.88 841 24.83 8.7 47.6 76 4.6 40.3
07:35 1012 29.88 841 24.83 8.9 48.1 76 4.9 40.8
07:40 1012 29.88 841 24.83 9.2 48.6 74 4.9 40.8
07:45 1012 29.88 841 24.83 9.2 48.6 76 5.3 41.6
07:50 1012 29.88 841 24.83 9.3 48.8 77 5.4 41.8
07:55 1012 29.88 841 24.83 9.3 48.8 77 5.4 41.8
08:00 1012 29.88 841 24.83 9.3 48.7 78 5.6 42.1
08:05 1012 29.88 841 24.83 9.3 48.7 77 5.4 41.8
08:10 1012 29.88 841 24.83 9.4 48.9 77 5.6 42.1
08:15 1012 29.88 841 24.83 9.5 49.2 76 5.6 42
08:20 1012 29.88 841 24.83 9.6 49.3 77 5.9 42.5
08:25 1012 29.88 841 24.83 9.7 49.4 77 5.8 42.5
08:30 1012 29.88 841 24.83 9.6 49.3 77 5.7 42.3
08:35 1012 29.88 841 24.83 9.5 49.1 78 5.9 42.7
08:40 1012 29.88 841 24.83 9.5 49 79 6 42.8
08:45 1012 29.88 841 24.83 9.6 49.4 76 5.7 42.3
08:50 1012 29.88 841 24.83 10 49.9 73 5.4 41.7
08:55 1012 29.88 841 24.83 10.1 50.1 74 5.6 42.1
09:00 1012 29.88 841 24.83 10.4 50.7 71 5.3 41.6
09:05 1012 29.88 841 24.83 10.7 51.2 71 5.7 42.3
09:10 1012 29.88 841 24.83 10.8 51.4 72 5.9 42.7
09:15 1012 29.88 841 24.83 11 51.9 72 6.2 43.2
09:20 1012 29.88 841 24.83 11.1 52 72 6.4 43.4
09:25 1012 29.88 841 24.83 11.2 52.1 70 6 42.8
09:30 1012 29.88 841 24.83 11.1 52 72 6.2 43.2
09:35 1012 29.88 841 24.83 11.2 52.2 72 6.4 43.6
09:40 1012 29.88 841 24.83 11.2 52.1 74 6.7 44
09:45 1012 29.88 841 24.83 11.2 52.1 72 6.4 43.5
09:50 1012 29.88 841 24.83 11.2 52.1 72 6.4 43.6
09:55 1012 29.88 841 24.83 11.3 52.3 74 6.8 44.2
10:00 1012 29.88 842 24.86 11.3 52.4 74 6.9 44.4
10:05 1012 29.88 842 24.86 11.3 52.4 73 6.8 44.2
10:10 1012 29.88 842 24.86 11 51.8 71 6.1 42.9
10:15 1012 29.88 842 24.86 10.6 51.1 69 5.2 41.3
10:20 1012 29.88 842 24.86 10.4 50.7 71 5.3 41.5
10:25 1012 29.88 842 24.86 10.5 50.9 73 5.8 42.4
10:30 1012 29.88 842 24.86 10.7 51.2 74 6.2 43.1
10:35 1012 29.88 842 24.86 11.2 52.2 70 6 42.9
10:40 1012 29.88 842 24.86 11.4 52.5 70 6.2 43.1
10:45 1012 29.88 842 24.86 11.4 52.5 71 6.3 43.3
10:50 1012 29.88 842 24.86 11.3 52.4 71 6.2 43.2
10:55 1012 29.88 842 24.86 11.3 52.3 72 6.5 43.6
11:00 1012 29.88 842 24.86 11.3 52.3 72 6.4 43.5
11:05 1012 29.88 842 24.86 11.3 52.3 72 6.4 43.5
11:10 1012 29.88 842 24.86 11.5 52.6 73 6.8 44.2
11:15 1012 29.88 842 24.86 11.7 53.1 69 6.3 43.3
11:20 1012 29.88 842 24.86 11.8 53.2 72 6.9 44.4
11:25 1012 29.88 842 24.86 11.9 53.5 69 6.5 43.7
11:30 1012 29.88 842 24.86 12 53.5 68 6.2 43.1
11:35 1012 29.88 842 24.86 12 53.6 68 6.3 43.4
11:40 1012 29.88 842 24.86 11.9 53.5 67 6 42.8
11:45 1012 29.88 842 24.86 12.2 53.9 69 6.6 43.9
11:50 1012 29.88 842 24.86 11.8 53.3 72 6.9 44.4
11:55 1012 29.88 842 24.86 11.5 52.6 71 6.4 43.6
12:00 1013 29.91 842 24.86 11.2 52.2 73 6.6 43.9
12:05 1013 29.91 842 24.86 11.4 52.5 74 6.9 44.4
12:10 1013 29.91 842 24.86 11.4 52.5 74 6.8 44.3
12:15 1013 29.91 842 24.86 11.2 52.2 75 6.9 44.4
12:20 1013 29.91 842 24.86 11.1 51.9 76 7.1 44.8
12:25 1013 29.91 842 24.86 10.9 51.6 76 6.8 44.2
12:30 1013 29.91 842 24.86 10.7 51.3 78 7.1 44.7
12:35 1013 29.91 842 24.86 10.7 51.3 76 6.7 44
12:40 1013 29.91 842 24.86 10.7 51.2 76 6.7 44
12:45 1013 29.91 842 24.86 10.7 51.3 78 7 44.6
12:50 1013 29.91 842 24.86 10.9 51.5 78 7.1 44.8
12:55 1013 29.91 842 24.86 11 51.8 77 7.1 44.8
13:00 1013 29.91 842 24.86 10.9 51.6 79 7.4 45.4
13:05 1013 29.91 842 24.86 10.7 51.2 79 7.2 44.9
13:10 1012 29.88 842 24.86 10.4 50.6 77 6.5 43.8
13:15 1012 29.88 842 24.86 10.2 50.4 81 7 44.7
13:20 1012 29.88 842 24.86 10.2 50.3 76 6.2 43.2
13:25 1012 29.88 842 24.86 10.3 50.5 74 5.9 42.6
13:30 1012 29.88 841 24.83 10.2 50.4 75 6 42.9
13:35 1012 29.88 841 24.83 10.4 50.7 77 6.6 44
13:40 1012 29.88 841 24.83 10.7 51.2 73 6 42.8
13:45 1012 29.88 841 24.83 10.6 51 74 6.1 43
13:50 1012 29.88 841 24.83 10.9 51.7 76 6.8 44.3
13:55 1012 29.88 841 24.83 11.4 52.5 73 6.7 44.1
14:00 1012 29.88 841 24.83 11.6 52.8 69 6.2 43.1
14:05 1012 29.88 841 24.83 12 53.6 65 5.7 42.2
14:10 1012 29.88 841 24.83 11.9 53.4 66 5.8 42.4
14:15 1012 29.88 841 24.83 12.1 53.9 64 5.5 41.9
14:20 1012 29.88 841 24.83 12 53.6 62 5 41
14:25 1012 29.88 841 24.83 11.6 52.8 63 4.9 40.9
14:30 1012 29.88 841 24.83 11.2 52.1 67 5.3 41.5
14:35 1012 29.88 841 24.83 11 51.8 74 6.6 43.9
14:40 1012 29.88 842 24.86 10.5 50.9 80 7.2 44.9
14:45 1012 29.88 841 24.83 9 48.3 86 6.8 44.3
14:50 1012 29.88 842 24.86 8.4 47 88 6.5 43.6
14:55 1012 29.88 842 24.86 8.2 46.7 87 6.1 43
15:00 1012 29.88 842 24.86 8.1 46.6 86 6 42.7
15:05 1012 29.88 842 24.86 8.3 47 87 6.3 43.3
15:10 1012 29.88 842 24.86 8.4 47.1 84 5.8 42.5
15:15 1012 29.88 842 24.86 8.6 47.4 84 6 42.9
15:20 1013 29.91 842 24.86 8.7 47.7 86 6.4 43.6
15:25 1013 29.91 842 24.86 8.7 47.7 87 6.7 44.1
15:30 1013 29.91 842 24.86 8.8 47.8 88 6.9 44.5
15:35 1013 29.91 842 24.86 8.9 48 89 7.1 44.9
15:40 1013 29.91 842 24.86 8.9 48.1 88 7.1 44.8
15:45 1013 29.91 842 24.86 8.8 47.9 88 7 44.6
15:50 1012 29.88 842 24.86 8.8 47.8 89 7.1 44.8
15:55 1013 29.91 842 24.86 8.8 47.9 88 7 44.6
16:00 1013 29.91 842 24.86 8.9 48 88 7 44.6
16:05 1013 29.91 842 24.86 8.9 47.9 85 6.4 43.6
16:10 1013 29.91 842 24.86 8.7 47.6 84 6.2 43.1
16:15 1013 29.91 842 24.86 8.7 47.7 83 6 42.8
16:20 1013 29.91 842 24.86 8.6 47.6 83 5.9 42.7
16:25 1013 29.91 842 24.86 8.6 47.6 80 5.4 41.7
16:30 1013 29.91 842 24.86 8.5 47.2 81 5.3 41.6
16:35 1013 29.91 842 24.86 8.5 47.3 80 5.3 41.5
16:40 1013 29.91 842 24.86 8.6 47.4 77 4.9 40.7
16:45 1013 29.91 842 24.86 8.6 47.5 76 4.7 40.4
16:50 1013 29.91 842 24.86 8.7 47.7 76 4.8 40.6
16:55 1013 29.91 842 24.86 8.7 47.7 74 4.4 39.9
17:00 1013 29.91 842 24.86 8.7 47.7 75 4.6 40.3
17:05 1013 29.91 842 24.86 8.7 47.7 74 4.4 39.9
17:10 1013 29.91 842 24.86 8.6 47.5 77 4.9 40.8
17:15 1012 29.88 842 24.86 8.4 47.2 79 5 41.1
17:20 1012 29.88 842 24.86 8.2 46.8 79 4.8 40.6
17:25 1012 29.88 842 24.86 8.1 46.5 79 4.7 40.5
17:30 1013 29.91 842 24.86 8 46.3 78 4.4 39.9
17:35 1012 29.88 842 24.86 7.9 46.3 74 3.7 38.6
17:40 1012 29.88 842 24.86 8.1 46.5 75 3.9 39
17:45 1012 29.88 842 24.86 8 46.4 77 4.2 39.5
17:50 1013 29.91 842 24.86 8 46.3 75 3.9 39
17:55 1013 29.91 842 24.86 8 46.5 74 3.8 38.8
18:00 1013 29.91 842 24.86 8.1 46.5 75 3.9 39
18:05 1013 29.91 842 24.86 8.1 46.5 73 3.5 38.3
18:10 1013 29.91 842 24.86 8.2 46.7 70 3.1 37.5
18:15 1013 29.91 842 24.86 8.2 46.8 72 3.4 38.2
18:20 1013 29.91 842 24.86 8.3 46.9 69 2.9 37.3
18:25 1013 29.91 842 24.86 8.4 47 69 3.1 37.5
18:30 1013 29.91 842 24.86 8.3 46.9 70 3.1 37.5
18:35 1013 29.91 842 24.86 8.2 46.8 70 3.2 37.7
18:40 1013 29.91 842 24.86 8.2 46.8 70 3.2 37.7
18:45 1013 29.91 842 24.86 8.2 46.7 70 3 37.4
18:50 1013 29.91 842 24.86 8.2 46.7 70 3.1 37.6
18:55 1013 29.91 843 24.89 8.2 46.8 69 2.8 37.1
19:00 1013 29.91 843 24.89 8.4 47 69 3.1 37.6
19:05 1013 29.91 843 24.89 8.4 47 70 3.2 37.7
19:10 1014 29.94 843 24.89 8.3 47 67 2.6 36.7
19:15 1014 29.94 843 24.89 8.5 47.4 62 1.7 35.1
19:20 1014 29.94 843 24.89 8.6 47.5 60 1.2 34.2
19:25 1014 29.94 843 24.89 8.5 47.3 59 1 33.9
19:30 1014 29.94 843 24.89 8.4 47.1 60 1.2 34.2
19:35 1014 29.94 843 24.89 8.3 47 60 1.1 34
19:40 1014 29.94 843 24.89 8.2 46.8 61 1.1 33.9
19:45 1014 29.94 843 24.89 8.2 46.7 61 1 33.8
19:50 1014 29.94 843 24.89 8.1 46.6 61 1 33.7
19:55 1014 29.94 843 24.89 8.1 46.5 60 0.8 33.5
20:00 1014 29.94 844 24.92 8 46.4 61 1 33.7
20:05 1014 29.94 844 24.92 7.9 46.3 59 0.5 32.9
20:10 1015 29.97 844 24.92 7.9 46.2 59 0.4 32.7
20:15 1015 29.97 844 24.92 7.9 46.1 58 0.1 32.2
20:20 1015 29.97 844 24.92 7.9 46.2 58 0.1 32.1
20:25 1015 29.97 844 24.92 7.9 46.2 58 0.2 32.4
20:30 1015 29.97 844 24.92 7.8 46 59 0.3 32.6
20:35 1015 29.97 844 24.92 7.7 45.8 59 0.3 32.5
20:40 1015 29.97 844 24.92 7.6 45.6 60 0.4 32.8
20:45 1015 29.97 844 24.92 7.5 45.5 61 0.5 32.9
20:50 1015 29.97 844 24.92 7.4 45.3 61 0.5 32.9
20:55 1015 29.97 844 24.92 7.4 45.2 62 0.5 33
21:00 1015 29.97 844 24.92 7.3 45.2 60 0.2 32.4
21:05 1015 29.97 844 24.92 7.4 45.2 60 0.2 32.3
21:10 1015 29.97 844 24.92 7.4 45.2 61 0.4 32.8
21:15 1015 29.97 844 24.92 7.2 45 62 0.4 32.7
21:20 1015 29.97 845 24.95 7.1 44.8 62 0.3 32.6
21:25 1015 29.97 845 24.95 7.1 44.7 61 0.1 32.2
21:30 1015 29.97 845 24.95 7 44.7 62 0.2 32.3
21:35 1015 29.97 845 24.95 6.9 44.4 61 -0 31.9
21:40 1015 29.97 845 24.95 6.9 44.4 59 -0.5 31.1
21:45 1015 29.97 845 24.95 6.9 44.4 59 -0.6 31
21:50 1015 29.97 845 24.95 6.9 44.4 58 -0.8 30.6
21:55 1015 29.97 845 24.95 6.8 44.2 58 -0.8 30.5
22:00 1015 29.97 845 24.95 6.7 44 58 -1 30.2
22:05 1015 29.97 845 24.95 6.6 43.8 58 -1 30.2
22:10 1015 29.97 845 24.95 6.5 43.7 60 -0.6 30.9
22:15 1016 30 845 24.95 6.2 43.1 62 -0.5 31.2
22:20 1016 30 845 24.95 5.9 42.7 62 -0.7 30.8
22:25 1016 30 845 24.95 6 42.7 62 -0.8 30.5
22:30 1016 30 845 24.95 6.1 43 60 -1 30.2
22:35 1016 30 845 24.95 6.2 43.1 61 -0.9 30.5
22:40 1016 30 845 24.95 6.2 43.1 60 -0.9 30.3
22:45 1016 30 845 24.95 6.1 43 61 -0.8 30.5
22:50 1016 30 845 24.95 6.1 43 61 -0.8 30.5
22:55 1016 30 845 24.95 6.1 43 62 -0.6 30.9
23:00 1016 30 845 24.95 6 42.8 63 -0.5 31.1
23:05 1016 30 845 24.95 5.9 42.7 63 -0.5 31.2
23:10 1016 30 845 24.95 5.8 42.4 64 -0.5 31.1
23:15 1016 30 845 24.95 5.7 42.2 65 -0.3 31.5
23:20 1016 30 845 24.95 5.5 41.9 66 -0.3 31.4
23:25 1016 30 845 24.95 5.4 41.7 66 -0.3 31.4
23:30 1016 30 845 24.95 5.2 41.4 67 -0.4 31.2
23:35 1016 30 845 24.95 5.3 41.5 66 -0.7 30.8
23:40 1016 30 845 24.95 5.3 41.5 65 -0.7 30.8
23:45 1016 30 845 24.95 5.4 41.7 65 -0.6 30.9
23:50 1016 30 845 24.95 5.5 41.8 65 -0.5 31
23:55 1016 30 845 24.95 5.5 41.9 65 -0.5 31.1
24:00 1016 30 845 24.95 5.6 42.1 64 -0.7 30.8